sensor_id;sensor_type;location;lat;lon;timestamp;pressure;altitude;pressure_sealevel;temperature;humidity
39411;BME280;26579;43.238;23.124;2022-09-28T00:00:38;95829.31;;;16.09;62.78
39411;BME280;26579;43.238;23.124;2022-09-28T00:03:04;95842.28;;;16.17;62.69
39411;BME280;26579;43.238;23.124;2022-09-28T00:05:29;95841.94;;;16.20;62.22
39411;BME280;26579;43.238;23.124;2022-09-28T00:07:55;95833.22;;;16.20;60.88
39411;BME280;26579;43.238;23.124;2022-09-28T00:10:21;95845.44;;;16.27;61.95
39411;BME280;26579;43.238;23.124;2022-09-28T00:12:48;95840.28;;;16.19;62.32
39411;BME280;26579;43.238;23.124;2022-09-28T00:15:15;95837.94;;;16.24;61.51
39411;BME280;26579;43.238;23.124;2022-09-28T00:17:41;95843.44;;;16.29;59.87
39411;BME280;26579;43.238;23.124;2022-09-28T00:20:07;95839.63;;;16.32;59.47
39411;BME280;26579;43.238;23.124;2022-09-28T00:22:33;95823.41;;;16.28;60.17
39411;BME280;26579;43.238;23.124;2022-09-28T00:24:58;95824.97;;;16.23;60.10
39411;BME280;26579;43.238;23.124;2022-09-28T00:27:24;95838.63;;;16.33;58.75
39411;BME280;26579;43.238;23.124;2022-09-28T00:29:50;95822.44;;;16.29;58.68
39411;BME280;26579;43.238;23.124;2022-09-28T00:32:16;95830.19;;;16.38;58.87
39411;BME280;26579;43.238;23.124;2022-09-28T00:34:42;95837.47;;;16.42;59.23
39411;BME280;26579;43.238;23.124;2022-09-28T00:37:09;95822.72;;;16.41;58.31
39411;BME280;26579;43.238;23.124;2022-09-28T00:39:35;95826.97;;;16.42;58.14
39411;BME280;26579;43.238;23.124;2022-09-28T00:42:03;95841.59;;;16.51;58.19
39411;BME280;26579;43.238;23.124;2022-09-28T00:44:40;95839.19;;;16.50;58.44
39411;BME280;26579;43.238;23.124;2022-09-28T00:50:18;95829.38;;;16.65;56.48
39411;BME280;26579;43.238;23.124;2022-09-28T00:53:04;95830.06;;;16.74;56.20
39411;BME280;26579;43.238;23.124;2022-09-28T00:55:37;95822.50;;;16.86;55.87
39411;BME280;26579;43.238;23.124;2022-09-28T00:58:06;95833.09;;;16.99;57.01
39411;BME280;26579;43.238;23.124;2022-09-28T01:00:33;95828.91;;;17.05;55.71
39411;BME280;26579;43.238;23.124;2022-09-28T01:02:58;95815.78;;;17.11;55.42
39411;BME280;26579;43.238;23.124;2022-09-28T01:05:25;95822.50;;;17.20;55.35
39411;BME280;26579;43.238;23.124;2022-09-28T01:07:52;95826.81;;;17.28;55.26
39411;BME280;26579;43.238;23.124;2022-09-28T01:10:20;95827.00;;;17.27;54.54
39411;BME280;26579;43.238;23.124;2022-09-28T01:12:46;95837.78;;;17.38;55.68
39411;BME280;26579;43.238;23.124;2022-09-28T01:15:12;95834.16;;;17.39;55.71
39411;BME280;26579;43.238;23.124;2022-09-28T01:18:08;95827.63;;;17.29;55.55
39411;BME280;26579;43.238;23.124;2022-09-28T01:20:53;95828.41;;;17.29;56.16
39411;BME280;26579;43.238;23.124;2022-09-28T01:28:18;95794.34;;;17.14;56.17
39411;BME280;26579;43.238;23.124;2022-09-28T01:33:42;95809.50;;;17.12;56.44
39411;BME280;26579;43.238;23.124;2022-09-28T01:36:29;95826.56;;;17.23;55.70
39411;BME280;26579;43.238;23.124;2022-09-28T01:39:05;95799.41;;;17.16;56.53
39411;BME280;26579;43.238;23.124;2022-09-28T01:41:34;95828.41;;;17.23;57.18
39411;BME280;26579;43.238;23.124;2022-09-28T01:44:05;95831.19;;;17.21;57.92
39411;BME280;26579;43.238;23.124;2022-09-28T01:46:45;95820.44;;;17.16;57.24
39411;BME280;26579;43.238;23.124;2022-09-28T01:49:26;95816.59;;;17.12;56.84
39411;BME280;26579;43.238;23.124;2022-09-28T01:51:58;95830.16;;;17.15;56.44
39411;BME280;26579;43.238;23.124;2022-09-28T01:54:49;95843.78;;;17.26;56.77
39411;BME280;26579;43.238;23.124;2022-09-28T02:00:03;95850.88;;;17.25;56.41
39411;BME280;26579;43.238;23.124;2022-09-28T02:05:34;95857.50;;;17.21;57.41
39411;BME280;26579;43.238;23.124;2022-09-28T02:08:23;95861.91;;;17.14;57.48
39411;BME280;26579;43.238;23.124;2022-09-28T02:10:59;95851.97;;;17.09;57.72
39411;BME280;26579;43.238;23.124;2022-09-28T02:13:33;95853.16;;;17.07;57.50
39411;BME280;26579;43.238;23.124;2022-09-28T02:16:10;95865.13;;;17.09;58.15
39411;BME280;26579;43.238;23.124;2022-09-28T02:18:38;95858.00;;;17.03;57.44
39411;BME280;26579;43.238;23.124;2022-09-28T02:21:25;95862.34;;;17.17;56.75
39411;BME280;26579;43.238;23.124;2022-09-28T02:23:57;95854.84;;;17.14;56.62
39411;BME280;26579;43.238;23.124;2022-09-28T02:26:34;95867.06;;;17.29;56.20
39411;BME280;26579;43.238;23.124;2022-09-28T02:29:00;95852.84;;;17.16;56.23
39411;BME280;26579;43.238;23.124;2022-09-28T02:31:26;95872.19;;;17.37;56.62
39411;BME280;26579;43.238;23.124;2022-09-28T02:33:54;95865.28;;;17.36;56.62
39411;BME280;26579;43.238;23.124;2022-09-28T02:36:21;95874.81;;;17.37;57.30
39411;BME280;26579;43.238;23.124;2022-09-28T02:38:47;95868.69;;;17.30;57.78
39411;BME280;26579;43.238;23.124;2022-09-28T02:47:09;95877.09;;;17.18;59.40
39411;BME280;26579;43.238;23.124;2022-09-28T03:07:01;95889.16;;;16.78;62.97
39411;BME280;26579;43.238;23.124;2022-09-28T03:09:39;95885.38;;;16.66;64.67
39411;BME280;26579;43.238;23.124;2022-09-28T03:12:10;95885.81;;;16.48;65.10
39411;BME280;26579;43.238;23.124;2022-09-28T03:14:37;95892.09;;;16.47;64.87
39411;BME280;26579;43.238;23.124;2022-09-28T03:17:03;95895.78;;;16.52;64.75
39411;BME280;26579;43.238;23.124;2022-09-28T03:19:31;95900.34;;;16.44;65.10
39411;BME280;26579;43.238;23.124;2022-09-28T03:21:59;95896.66;;;16.38;65.55
39411;BME280;26579;43.238;23.124;2022-09-28T03:24:25;95888.69;;;16.32;65.49
39411;BME280;26579;43.238;23.124;2022-09-28T03:26:50;95887.44;;;16.27;65.42
39411;BME280;26579;43.238;23.124;2022-09-28T03:29:16;95880.56;;;16.26;66.21
39411;BME280;26579;43.238;23.124;2022-09-28T03:31:45;95883.88;;;16.14;66.57
39411;BME280;26579;43.238;23.124;2022-09-28T03:34:11;95877.00;;;16.13;66.91
39411;BME280;26579;43.238;23.124;2022-09-28T03:36:36;95876.72;;;16.07;66.84
39411;BME280;26579;43.238;23.124;2022-09-28T03:39:02;95877.44;;;16.16;66.23
39411;BME280;26579;43.238;23.124;2022-09-28T03:41:28;95877.75;;;16.06;66.95
39411;BME280;26579;43.238;23.124;2022-09-28T03:43:54;95881.16;;;16.07;67.32
39411;BME280;26579;43.238;23.124;2022-09-28T03:46:22;95876.47;;;16.02;67.04
39411;BME280;26579;43.238;23.124;2022-09-28T03:48:51;95876.59;;;15.94;67.66
39411;BME280;26579;43.238;23.124;2022-09-28T03:51:17;95880.63;;;15.97;67.94
39411;BME280;26579;43.238;23.124;2022-09-28T03:53:42;95881.72;;;16.02;67.73
39411;BME280;26579;43.238;23.124;2022-09-28T03:56:11;95867.66;;;15.89;68.12
39411;BME280;26579;43.238;23.124;2022-09-28T03:58:38;95872.00;;;15.81;68.27
39411;BME280;26579;43.238;23.124;2022-09-28T04:01:06;95867.81;;;15.87;67.95
39411;BME280;26579;43.238;23.124;2022-09-28T04:03:32;95860.75;;;15.88;68.33
39411;BME280;26579;43.238;23.124;2022-09-28T04:05:58;95868.63;;;15.88;69.11
39411;BME280;26579;43.238;23.124;2022-09-28T04:08:24;95871.19;;;15.81;68.79
39411;BME280;26579;43.238;23.124;2022-09-28T04:10:50;95875.00;;;15.78;68.67
39411;BME280;26579;43.238;23.124;2022-09-28T04:13:16;95893.91;;;15.89;68.68
39411;BME280;26579;43.238;23.124;2022-09-28T04:15:42;95867.75;;;15.80;68.94
39411;BME280;26579;43.238;23.124;2022-09-28T04:18:16;95861.50;;;15.81;68.42
39411;BME280;26579;43.238;23.124;2022-09-28T04:21:12;95864.03;;;15.90;69.11
39411;BME280;26579;43.238;23.124;2022-09-28T04:23:43;95868.47;;;15.89;68.97
39411;BME280;26579;43.238;23.124;2022-09-28T04:26:19;95842.78;;;15.70;70.17
39411;BME280;26579;43.238;23.124;2022-09-28T04:28:47;95875.69;;;15.87;70.21
39411;BME280;26579;43.238;23.124;2022-09-28T04:31:18;95865.94;;;15.81;70.17
39411;BME280;26579;43.238;23.124;2022-09-28T04:33:45;95871.81;;;15.83;70.84
39411;BME280;26579;43.238;23.124;2022-09-28T04:36:11;95859.69;;;15.67;70.61
39411;BME280;26579;43.238;23.124;2022-09-28T04:38:37;95865.31;;;15.79;71.06
39411;BME280;26579;43.238;23.124;2022-09-28T04:41:03;95863.47;;;15.79;70.51
39411;BME280;26579;43.238;23.124;2022-09-28T04:43:29;95855.44;;;15.81;71.17
39411;BME280;26579;43.238;23.124;2022-09-28T04:45:59;95850.84;;;15.83;71.08
39411;BME280;26579;43.238;23.124;2022-09-28T04:48:29;95851.63;;;15.83;71.42
39411;BME280;26579;43.238;23.124;2022-09-28T04:51:06;95869.97;;;15.98;72.16
39411;BME280;26579;43.238;23.124;2022-09-28T04:53:32;95856.09;;;16.04;69.41
39411;BME280;26579;43.238;23.124;2022-09-28T04:56:03;95847.31;;;16.12;66.59
39411;BME280;26579;43.238;23.124;2022-09-28T04:58:29;95868.00;;;16.43;63.82
39411;BME280;26579;43.238;23.124;2022-09-28T05:01:04;95864.94;;;16.61;64.93
39411;BME280;26579;43.238;23.124;2022-09-28T05:03:49;95856.34;;;16.74;64.84
39411;BME280;26579;43.238;23.124;2022-09-28T05:06:25;95841.13;;;16.91;61.93
39411;BME280;26579;43.238;23.124;2022-09-28T05:08:57;95838.56;;;17.04;63.35
39411;BME280;26579;43.238;23.124;2022-09-28T05:11:22;95850.41;;;17.22;59.70
39411;BME280;26579;43.238;23.124;2022-09-28T05:13:48;95844.22;;;17.36;58.40
39411;BME280;26579;43.238;23.124;2022-09-28T05:16:15;95861.72;;;17.57;57.85
39411;BME280;26579;43.238;23.124;2022-09-28T05:19:01;95853.50;;;17.67;57.34
39411;BME280;26579;43.238;23.124;2022-09-28T05:21:27;95862.44;;;17.72;59.89
39411;BME280;26579;43.238;23.124;2022-09-28T05:23:52;95882.53;;;17.80;60.29
39411;BME280;26579;43.238;23.124;2022-09-28T05:26:18;95878.00;;;17.67;62.07
39411;BME280;26579;43.238;23.124;2022-09-28T05:28:44;95881.03;;;17.71;61.89
39411;BME280;26579;43.238;23.124;2022-09-28T05:31:30;95881.78;;;17.93;60.64
39411;BME280;26579;43.238;23.124;2022-09-28T05:34:14;95870.19;;;17.80;60.71
39411;BME280;26579;43.238;23.124;2022-09-28T05:36:40;95874.56;;;17.67;61.63
39411;BME280;26579;43.238;23.124;2022-09-28T05:39:06;95875.19;;;17.69;60.96
39411;BME280;26579;43.238;23.124;2022-09-28T05:41:33;95892.56;;;17.63;62.76
39411;BME280;26579;43.238;23.124;2022-09-28T05:43:59;95890.34;;;17.67;64.43
39411;BME280;26579;43.238;23.124;2022-09-28T05:46:25;95891.34;;;17.65;63.41
39411;BME280;26579;43.238;23.124;2022-09-28T05:48:51;95887.09;;;17.64;63.22
39411;BME280;26579;43.238;23.124;2022-09-28T05:51:17;95891.38;;;17.72;63.30
39411;BME280;26579;43.238;23.124;2022-09-28T05:53:43;95888.53;;;17.74;63.69
39411;BME280;26579;43.238;23.124;2022-09-28T05:56:09;95911.53;;;17.93;63.30
39411;BME280;26579;43.238;23.124;2022-09-28T05:58:37;95902.47;;;18.02;60.57
39411;BME280;26579;43.238;23.124;2022-09-28T06:01:03;95903.31;;;18.16;59.69
39411;BME280;26579;43.238;23.124;2022-09-28T06:03:29;95898.88;;;18.17;58.94
39411;BME280;26579;43.238;23.124;2022-09-28T06:05:55;95909.44;;;18.30;58.11
39411;BME280;26579;43.238;23.124;2022-09-28T06:08:20;95898.00;;;18.77;57.55
39411;BME280;26579;43.238;23.124;2022-09-28T06:10:58;95885.75;;;19.43;55.45
39411;BME280;26579;43.238;23.124;2022-09-28T06:13:24;95893.28;;;20.11;55.07
39411;BME280;26579;43.238;23.124;2022-09-28T06:15:50;95909.84;;;19.80;55.87
39411;BME280;26579;43.238;23.124;2022-09-28T06:18:16;95918.00;;;19.52;56.26
39411;BME280;26579;43.238;23.124;2022-09-28T06:21:02;95918.47;;;19.29;57.62
39411;BME280;26579;43.238;23.124;2022-09-28T06:23:33;95924.97;;;19.13;57.45
39411;BME280;26579;43.238;23.124;2022-09-28T06:25:59;95929.44;;;19.06;57.99
39411;BME280;26579;43.238;23.124;2022-09-28T06:28:25;95926.38;;;19.22;59.83
39411;BME280;26579;43.238;23.124;2022-09-28T06:30:51;95922.91;;;19.48;59.23
39411;BME280;26579;43.238;23.124;2022-09-28T06:33:17;95910.56;;;19.29;57.17
39411;BME280;26579;43.238;23.124;2022-09-28T06:35:43;95914.41;;;19.33;56.82
39411;BME280;26579;43.238;23.124;2022-09-28T06:38:09;95930.03;;;19.34;57.83
39411;BME280;26579;43.238;23.124;2022-09-28T06:40:36;95936.34;;;19.27;58.09
39411;BME280;26579;43.238;23.124;2022-09-28T06:43:04;95944.88;;;19.15;59.88
39411;BME280;26579;43.238;23.124;2022-09-28T06:45:54;95932.88;;;19.13;59.44
39411;BME280;26579;43.238;23.124;2022-09-28T06:48:40;95913.81;;;18.97;59.51
39411;BME280;26579;43.238;23.124;2022-09-28T06:51:08;95916.47;;;18.97;59.39
39411;BME280;26579;43.238;23.124;2022-09-28T06:53:52;95932.69;;;19.01;59.89
39411;BME280;26579;43.238;23.124;2022-09-28T06:56:53;95933.09;;;19.05;58.57
39411;BME280;26579;43.238;23.124;2022-09-28T06:59:19;95917.69;;;19.08;60.34
39411;BME280;26579;43.238;23.124;2022-09-28T07:01:45;95920.72;;;19.18;60.04
39411;BME280;26579;43.238;23.124;2022-09-28T07:04:29;95914.81;;;19.36;59.00
39411;BME280;26579;43.238;23.124;2022-09-28T07:07:17;95914.97;;;19.61;50.56
39411;BME280;26579;43.238;23.124;2022-09-28T07:10:10;95896.63;;;19.86;48.86
39411;BME280;26579;43.238;23.124;2022-09-28T07:13:05;95916.75;;;20.32;47.36
39411;BME280;26579;43.238;23.124;2022-09-28T07:15:42;95915.81;;;20.58;45.98
39411;BME280;26579;43.238;23.124;2022-09-28T07:18:11;95917.47;;;20.85;45.40
39411;BME280;26579;43.238;23.124;2022-09-28T07:20:38;95920.59;;;21.00;44.92
39411;BME280;26579;43.238;23.124;2022-09-28T07:23:05;95887.94;;;20.88;44.66
39411;BME280;26579;43.238;23.124;2022-09-28T07:25:40;95912.28;;;21.21;44.59
39411;BME280;26579;43.238;23.124;2022-09-28T07:28:18;95926.41;;;21.40;43.68
39411;BME280;26579;43.238;23.124;2022-09-28T07:31:02;95921.66;;;21.67;43.12
39411;BME280;26579;43.238;23.124;2022-09-28T07:33:48;95903.56;;;21.83;41.38
39411;BME280;26579;43.238;23.124;2022-09-28T07:36:29;95909.53;;;21.97;41.60
39411;BME280;26579;43.238;23.124;2022-09-28T07:38:54;95902.34;;;22.15;41.38
39411;BME280;26579;43.238;23.124;2022-09-28T07:41:20;95899.69;;;22.34;40.83
39411;BME280;26579;43.238;23.124;2022-09-28T07:43:52;95916.97;;;22.55;40.90
39411;BME280;26579;43.238;23.124;2022-09-28T07:46:18;95913.38;;;22.31;40.31
39411;BME280;26579;43.238;23.124;2022-09-28T07:48:54;95912.94;;;22.15;39.39
39411;BME280;26579;43.238;23.124;2022-09-28T07:51:42;95910.69;;;22.01;40.97
39411;BME280;26579;43.238;23.124;2022-09-28T07:54:37;95899.72;;;21.97;41.17
39411;BME280;26579;43.238;23.124;2022-09-28T07:57:26;95920.63;;;21.87;41.74
39411;BME280;26579;43.238;23.124;2022-09-28T08:00:15;95929.69;;;21.79;42.84
39411;BME280;26579;43.238;23.124;2022-09-28T08:02:44;95933.03;;;23.02;41.38
39411;BME280;26579;43.238;23.124;2022-09-28T08:05:13;95924.16;;;23.67;38.85
39411;BME280;26579;43.238;23.124;2022-09-28T08:07:41;95935.13;;;24.34;38.97
39411;BME280;26579;43.238;23.124;2022-09-28T08:10:08;95935.91;;;24.92;36.02
39411;BME280;26579;43.238;23.124;2022-09-28T08:12:43;95929.38;;;25.28;35.76
39411;BME280;26579;43.238;23.124;2022-09-28T08:15:30;95938.88;;;25.80;34.32
39411;BME280;26579;43.238;23.124;2022-09-28T08:18:26;95935.84;;;26.10;32.32
39411;BME280;26579;43.238;23.124;2022-09-28T08:20:52;95932.06;;;26.28;31.96
39411;BME280;26579;43.238;23.124;2022-09-28T08:23:19;95939.25;;;26.50;32.36
39411;BME280;26579;43.238;23.124;2022-09-28T08:25:48;95928.78;;;25.99;32.58
39411;BME280;26579;43.238;23.124;2022-09-28T08:28:15;95931.06;;;26.56;30.96
39411;BME280;26579;43.238;23.124;2022-09-28T08:30:45;95941.00;;;26.88;31.12
39411;BME280;26579;43.238;23.124;2022-09-28T08:33:29;95920.53;;;27.31;30.83
39411;BME280;26579;43.238;23.124;2022-09-28T08:36:14;95933.38;;;27.34;32.06
39411;BME280;26579;43.238;23.124;2022-09-28T08:38:58;95916.47;;;26.96;31.59
39411;BME280;26579;43.238;23.124;2022-09-28T08:41:53;95923.13;;;26.39;33.13
39411;BME280;26579;43.238;23.124;2022-09-28T08:44:56;95940.13;;;25.72;33.88
39411;BME280;26579;43.238;23.124;2022-09-28T08:50:31;95934.91;;;24.93;34.80
39411;BME280;26579;43.238;23.124;2022-09-28T08:53:42;95935.00;;;24.41;35.24
39411;BME280;26579;43.238;23.124;2022-09-28T08:59:00;95908.47;;;25.20;33.01
39411;BME280;26579;43.238;23.124;2022-09-28T09:01:31;95909.88;;;26.01;32.05
39411;BME280;26579;43.238;23.124;2022-09-28T09:04:02;95895.94;;;26.70;31.24
39411;BME280;26579;43.238;23.124;2022-09-28T09:09:38;95900.59;;;27.91;29.57
39411;BME280;26579;43.238;23.124;2022-09-28T09:12:16;95887.31;;;28.17;29.24
39411;BME280;26579;43.238;23.124;2022-09-28T09:23:19;95893.72;;;28.11;29.72
39411;BME280;26579;43.238;23.124;2022-09-28T09:25:54;95900.41;;;28.08;27.79
39411;BME280;26579;43.238;23.124;2022-09-28T09:28:40;95916.81;;;28.32;28.30
39411;BME280;26579;43.238;23.124;2022-09-28T09:34:42;95882.44;;;27.93;27.93
39411;BME280;26579;43.238;23.124;2022-09-28T09:38:11;95898.97;;;28.48;28.06
39411;BME280;26579;43.238;23.124;2022-09-28T09:41:17;95890.84;;;28.33;29.01
39411;BME280;26579;43.238;23.124;2022-09-28T09:49:50;95900.34;;;27.50;30.94
39411;BME280;26579;43.238;23.124;2022-09-28T09:52:48;95900.88;;;27.95;30.05
39411;BME280;26579;43.238;23.124;2022-09-28T10:00:49;95906.59;;;28.14;30.50
39411;BME280;26579;43.238;23.124;2022-09-28T10:03:29;95906.19;;;28.58;29.62
39411;BME280;26579;43.238;23.124;2022-09-28T10:06:11;95906.09;;;28.32;27.77
39411;BME280;26579;43.238;23.124;2022-09-28T10:08:42;95907.03;;;28.69;28.21
39411;BME280;26579;43.238;23.124;2022-09-28T10:11:14;95916.72;;;29.00;27.61
39411;BME280;26579;43.238;23.124;2022-09-28T10:13:48;95900.63;;;28.80;27.43
39411;BME280;26579;43.238;23.124;2022-09-28T10:16:33;95904.63;;;27.94;28.86
39411;BME280;26579;43.238;23.124;2022-09-28T10:19:01;95899.34;;;27.19;29.48
39411;BME280;26579;43.238;23.124;2022-09-28T10:21:48;95902.66;;;26.23;31.78
39411;BME280;26579;43.238;23.124;2022-09-28T10:24:42;95912.78;;;26.21;32.16
39411;BME280;26579;43.238;23.124;2022-09-28T10:27:33;95906.97;;;26.78;31.17
39411;BME280;26579;43.238;23.124;2022-09-28T10:30:03;95893.75;;;27.21;31.97
39411;BME280;26579;43.238;23.124;2022-09-28T10:32:44;95891.63;;;27.65;31.05
39411;BME280;26579;43.238;23.124;2022-09-28T10:35:32;95910.16;;;27.02;30.19
39411;BME280;26579;43.238;23.124;2022-09-28T10:38:06;95871.34;;;26.62;31.26
39411;BME280;26579;43.238;23.124;2022-09-28T10:40:51;95897.25;;;26.67;32.07
39411;BME280;26579;43.238;23.124;2022-09-28T10:43:36;95914.28;;;26.88;32.30
39411;BME280;26579;43.238;23.124;2022-09-28T10:46:12;95923.28;;;26.82;33.35
39411;BME280;26579;43.238;23.124;2022-09-28T10:48:53;95907.75;;;26.74;33.39
39411;BME280;26579;43.238;23.124;2022-09-28T10:51:44;95890.03;;;26.40;33.15
39411;BME280;26579;43.238;23.124;2022-09-28T10:54:19;95902.00;;;26.38;35.58
39411;BME280;26579;43.238;23.124;2022-09-28T10:56:48;95901.28;;;26.20;36.01
39411;BME280;26579;43.238;23.124;2022-09-28T11:04:42;95907.13;;;25.95;33.60
39411;BME280;26579;43.238;23.124;2022-09-28T11:07:27;95913.16;;;26.30;34.02
39411;BME280;26579;43.238;23.124;2022-09-28T11:09:54;95899.94;;;26.67;32.50
39411;BME280;26579;43.238;23.124;2022-09-28T11:12:23;95895.94;;;26.70;33.48
39411;BME280;26579;43.238;23.124;2022-09-28T11:14:56;95901.72;;;27.16;34.55
39411;BME280;26579;43.238;23.124;2022-09-28T11:17:32;95889.94;;;27.49;32.11
39411;BME280;26579;43.238;23.124;2022-09-28T11:23:21;95895.63;;;27.68;31.70
39411;BME280;26579;43.238;23.124;2022-09-28T11:26:03;95889.38;;;27.47;32.20
39411;BME280;26579;43.238;23.124;2022-09-28T11:28:32;95875.09;;;27.31;32.76
39411;BME280;26579;43.238;23.124;2022-09-28T11:31:01;95887.34;;;27.22;32.30
39411;BME280;26579;43.238;23.124;2022-09-28T11:33:39;95888.97;;;27.23;33.46
39411;BME280;26579;43.238;23.124;2022-09-28T11:37:41;95870.19;;;27.55;32.43
39411;BME280;26579;43.238;23.124;2022-09-28T11:40:08;95861.72;;;27.26;32.64
39411;BME280;26579;43.238;23.124;2022-09-28T11:48:22;95880.38;;;26.56;35.58
39411;BME280;26579;43.238;23.124;2022-09-28T11:51:03;95884.78;;;26.24;36.65
39411;BME280;26579;43.238;23.124;2022-09-28T11:53:42;95870.13;;;25.99;36.86
39411;BME280;26579;43.238;23.124;2022-09-28T11:58:54;95872.22;;;25.97;36.61
39411;BME280;26579;43.238;23.124;2022-09-28T12:01:45;95876.31;;;26.05;36.26
39411;BME280;26579;43.238;23.124;2022-09-28T12:04:43;95865.94;;;26.30;36.39
39411;BME280;26579;43.238;23.124;2022-09-28T12:07:29;95866.53;;;26.37;36.09
39411;BME280;26579;43.238;23.124;2022-09-28T12:10:12;95871.56;;;26.34;36.13
39411;BME280;26579;43.238;23.124;2022-09-28T12:12:48;95873.38;;;26.28;35.60
39411;BME280;26579;43.238;23.124;2022-09-28T12:15:31;95877.19;;;26.10;35.59
39411;BME280;26579;43.238;23.124;2022-09-28T12:18:04;95867.06;;;25.90;34.66
39411;BME280;26579;43.238;23.124;2022-09-28T12:20:34;95860.31;;;25.83;35.86
39411;BME280;26579;43.238;23.124;2022-09-28T12:23:11;95866.66;;;25.99;35.25
39411;BME280;26579;43.238;23.124;2022-09-28T12:25:43;95866.44;;;26.27;36.15
39411;BME280;26579;43.238;23.124;2022-09-28T12:28:25;95863.66;;;26.44;34.81
39411;BME280;26579;43.238;23.124;2022-09-28T12:30:53;95855.38;;;26.68;34.59
39411;BME280;26579;43.238;23.124;2022-09-28T12:33:19;95860.44;;;26.69;33.83
39411;BME280;26579;43.238;23.124;2022-09-28T12:41:23;95872.19;;;27.00;33.21
39411;BME280;26579;43.238;23.124;2022-09-28T12:56:03;95878.66;;;27.09;33.95
39411;BME280;26579;43.238;23.124;2022-09-28T13:04:25;95876.69;;;26.62;34.30
39411;BME280;26579;43.238;23.124;2022-09-28T13:07:11;95875.88;;;26.40;34.26
39411;BME280;26579;43.238;23.124;2022-09-28T13:09:51;95885.97;;;26.33;34.39
39411;BME280;26579;43.238;23.124;2022-09-28T13:18:13;95883.06;;;25.90;34.76
39411;BME280;26579;43.238;23.124;2022-09-28T13:21:42;95898.75;;;25.87;36.63
39411;BME280;26579;43.238;23.124;2022-09-28T13:23:44;95887.31;;;25.69;35.06
39411;BME280;26579;43.238;23.124;2022-09-28T13:28:45;95888.72;;;25.55;39.03
39411;BME280;26579;43.238;23.124;2022-09-28T13:31:11;95891.31;;;25.50;39.99
39411;BME280;26579;43.238;23.124;2022-09-28T13:33:43;95888.44;;;25.35;41.19
39411;BME280;26579;43.238;23.124;2022-09-28T13:38:56;95897.88;;;25.25;44.37
39411;BME280;26579;43.238;23.124;2022-09-28T13:41:33;95885.47;;;25.14;44.00
39411;BME280;26579;43.238;23.124;2022-09-28T14:03:11;95875.00;;;25.85;35.55
39411;BME280;26579;43.238;23.124;2022-09-28T14:11:52;95889.38;;;26.28;37.48
39411;BME280;26579;43.238;23.124;2022-09-28T14:14:48;95892.34;;;26.54;36.60
39411;BME280;26579;43.238;23.124;2022-09-28T14:19:44;95890.72;;;26.80;39.38
39411;BME280;26579;43.238;23.124;2022-09-28T14:28:01;95885.94;;;27.14;35.74
39411;BME280;26579;43.238;23.124;2022-09-28T14:33:24;95877.97;;;27.19;37.65
39411;BME280;26579;43.238;23.124;2022-09-28T14:36:06;95877.72;;;27.21;37.16
39411;BME280;26579;43.238;23.124;2022-09-28T14:38:48;95872.94;;;27.23;36.80
39411;BME280;26579;43.238;23.124;2022-09-28T14:44:08;95868.28;;;27.13;36.86
39411;BME280;26579;43.238;23.124;2022-09-28T14:49:08;95878.69;;;26.77;38.44
39411;BME280;26579;43.238;23.124;2022-09-28T14:54:25;95885.44;;;26.58;40.09
39411;BME280;26579;43.238;23.124;2022-09-28T14:59:19;95891.63;;;26.14;40.45
39411;BME280;26579;43.238;23.124;2022-09-28T15:01:50;95892.25;;;26.00;39.76
39411;BME280;26579;43.238;23.124;2022-09-28T15:04:19;95890.34;;;25.95;39.65
39411;BME280;26579;43.238;23.124;2022-09-28T15:06:47;95880.09;;;25.87;39.93
39411;BME280;26579;43.238;23.124;2022-09-28T15:12:13;95890.84;;;25.92;39.70
39411;BME280;26579;43.238;23.124;2022-09-28T15:14:59;95891.56;;;25.87;41.33
39411;BME280;26579;43.238;23.124;2022-09-28T15:17:31;95892.75;;;25.80;43.50
39411;BME280;26579;43.238;23.124;2022-09-28T15:20:23;95890.72;;;25.65;44.76
39411;BME280;26579;43.238;23.124;2022-09-28T15:22:54;95886.88;;;25.39;44.89
39411;BME280;26579;43.238;23.124;2022-09-28T15:25:21;95872.69;;;24.99;45.77
39411;BME280;26579;43.238;23.124;2022-09-28T15:27:56;95885.59;;;24.74;46.42
39411;BME280;26579;43.238;23.124;2022-09-28T15:30:33;95888.78;;;24.59;46.94
39411;BME280;26579;43.238;23.124;2022-09-28T15:33:01;95872.91;;;24.35;47.18
39411;BME280;26579;43.238;23.124;2022-09-28T15:35:27;95879.78;;;24.20;48.19
39411;BME280;26579;43.238;23.124;2022-09-28T15:37:53;95891.66;;;24.00;47.55
39411;BME280;26579;43.238;23.124;2022-09-28T15:40:36;95911.94;;;23.78;47.61
39411;BME280;26579;43.238;23.124;2022-09-28T15:43:28;95896.69;;;23.38;48.34
39411;BME280;26579;43.238;23.124;2022-09-28T15:46:19;95902.78;;;23.26;48.36
39411;BME280;26579;43.238;23.124;2022-09-28T15:48:46;95911.69;;;23.20;49.68
39411;BME280;26579;43.238;23.124;2022-09-28T15:51:13;95903.09;;;22.95;51.59
39411;BME280;26579;43.238;23.124;2022-09-28T15:53:56;95919.69;;;22.90;51.38
39411;BME280;26579;43.238;23.124;2022-09-28T15:56:22;95913.44;;;22.73;51.17
39411;BME280;26579;43.238;23.124;2022-09-28T16:01:44;95919.28;;;22.33;53.28
39411;BME280;26579;43.238;23.124;2022-09-28T16:04:35;95931.44;;;22.04;54.64
39411;BME280;26579;43.238;23.124;2022-09-28T16:15:26;95927.00;;;21.42;56.45
39411;BME280;26579;43.238;23.124;2022-09-28T16:17:54;95920.84;;;21.23;56.48
39411;BME280;26579;43.238;23.124;2022-09-28T16:22:46;95920.44;;;21.20;56.15
39411;BME280;26579;43.238;23.124;2022-09-28T16:25:21;95930.06;;;21.14;56.24
39411;BME280;26579;43.238;23.124;2022-09-28T16:27:48;95925.81;;;21.13;56.37
39411;BME280;26579;43.238;23.124;2022-09-28T16:30:26;95934.53;;;21.14;57.12
39411;BME280;26579;43.238;23.124;2022-09-28T16:32:53;95936.31;;;21.20;56.83